Gearhart, Oregon
Current Conditions -  °F | °C
As of 11:55 AM on Thursday 30 Oct 2014 (Local Time) from KAST Reporting Station
Light Rain Light Rain  
Wind Chill: 60°   Ceiling: 3000
Heat Index: 60°   Visibility: 4mi
Dew Point: 57°   Wind: 7mph
Humidity: 90%   Direction: 130°SE
Pressure: 29.79"   Gusts: NA
Location:  45.8905°N, 123.667°W
Report Text: KAST 301855Z AUTO 13006KT 4SM -RA BR FEW023 BKN030 OVC070 16/14 A2979 RMK AO2 RAB15 SLP087 P0016 T01560139
Loading
Personal Weather Stations






























Interactive Weather Map New forecast layout! Learn more

10-Day Weather Forecast

Advertisements
Track Severe Weather on mobile